Pagrindinis puslapis
METAR-TAF:

METAR-TAF

Oro uostai :

Vientianas, Laosas

platuma: 17-57N, ilguma: 102-34E, Aukštis: 171 m

Dabartinis oras

Ataskaita buvo paskelbta 33 minutes, ne 07:30 UTC
Vėjas 4 kt iš Pietų/Pietryčių
Temperatūra 30°C
Drėgmė 31%
Slėgis 1016 hPa
Matomumas: 8000 m

METAR: VLVT 230730Z 16004KT 8000 NSC 30/11 Q1016 NOSIG

Laikas: 15:03 (08:03 UTC)

Prognozė

Ataskaita buvo paskelbta 3 valandos ir 3 minutes, ne 05:00 UTC
Prognozė galioja nuo 23 metu 06 UTC su 24 metu 06 UTC
Vėjas 6 kt iš Rytų
Matomumas: 8000 m
Mažai debesys ne aukštis 2000 ft
Mažai debesys ne aukštis 5000 ft

TAF: VLVT 230500Z 2306/2406 09006KT 8000 FEW020 FEW050

Orai ataskaitas ir orų prognozės (METAR, TAF).

turimą stotys yra geltonos ir raudonos taškus žemėlapyje.

Perkelti pele per norėdami pamatyti stoties vardą.

Tada spustelėkite, norėdami matyti oro stebėjimo ir prognozės.

Norėdami pakeisti žemėlapį: spustelėkite ant žalios mygtukų su juodo kryžiaus žemyn,; žalią mygtuką su brūkšneliu, jei norite nutolinti; arba žalių rodyklių gretimoms žemėlapius.


METAR-TAF: